KBHM/BHM METAR and TAF weather

Enter ICAO airport designator
Station Type Date Time Source
KBHM METAR 2021/02/27 09:10 UTC NOAA

KBHM 270910Z 21014KT 10SM SCT018 20/17 A3009 RMK AO2 T02000167


Station Type Date Time Source
KBHM Decoded METAR 2021/02/27 09:10 UTC NOAA

BIRMINGHAM INT'L AIRPORT, AL, United States (KBHM) 33-34N 086-45W 197M
Feb 27, 2021 - 04:10 AM EST / 2021.02.27 0910 UTC
Wind: from the SSW (210 degrees) at 16 MPH (14 KT):0
Visibility: 10 mile(s):0
Sky conditions: partly cloudy
Temperature: 68.0 F (20.0 C)
Dew Point: 62.1 F (16.7 C)
Relative Humidity: 81%
Pressure (altimeter): 30.09 in. Hg (1018 hPa)
ob: KBHM 270910Z 21014KT 10SM SCT018 20/17 A3009 RMK AO2 T02000167
cycle: 9

Station Type Date Time Source
KBHM TAF 2021/02/27 06:22 UTC NOAA

TAF KBHM 270520Z 2706/2806 17010KT P6SM SCT040 SCT060
FM270800 20010KT P6SM OVC018
FM271300 21009KT P6SM OVC005
FM271500 19011KT P6SM OVC018
FM272000 18012KT P6SM BKN035

Example: see airport list